createdAt,value
2016-07-22T00:00:00.135Z,19.92
2016-07-22T00:01:00.019Z,19.87
2016-07-22T00:02:00.073Z,19.86
2016-07-22T00:03:00.064Z,19.87
2016-07-22T00:04:00.052Z,19.92
2016-07-22T00:05:00.080Z,19.87
2016-07-22T00:05:59.990Z,19.82
2016-07-22T00:07:00.145Z,19.85
2016-07-22T00:08:00.148Z,19.72
2016-07-22T00:09:00.008Z,19.89
2016-07-22T00:09:59.991Z,19.82
2016-07-22T00:11:00.083Z,19.85
2016-07-22T00:12:00.083Z,19.85
2016-07-22T00:13:00.155Z,19.89
2016-07-22T00:14:00.162Z,19.83
2016-07-22T00:15:00.033Z,19.74
2016-07-22T00:16:00.133Z,19.9
2016-07-22T00:17:00.151Z,19.87
2016-07-22T00:18:00.031Z,19.8
2016-07-22T00:19:00.108Z,19.87
2016-07-22T00:20:00.152Z,20.01
2016-07-22T00:21:00.036Z,19.95
2016-07-22T00:22:00.184Z,19.97
2016-07-22T00:23:00.047Z,20.02
2016-07-22T00:24:00.051Z,19.95
2016-07-22T00:25:00.051Z,19.92
2016-07-22T00:26:00.205Z,19.89
2016-07-22T00:27:00.129Z,20.02
2016-07-22T00:28:00.129Z,19.97
2016-07-22T00:29:00.053Z,19.9
2016-07-22T00:30:00.183Z,19.9
2016-07-22T00:31:00.128Z,20.01
2016-07-22T00:32:00.160Z,20.1
2016-07-22T00:33:00.162Z,20.07
2016-07-22T00:34:00.228Z,20
2016-07-22T00:35:00.101Z,20.04
2016-07-22T00:36:00.166Z,20.01
2016-07-22T00:37:00.160Z,19.93
2016-07-22T00:38:00.158Z,19.93
2016-07-22T00:39:00.092Z,19.89
2016-07-22T00:40:00.233Z,19.89
2016-07-22T00:41:00.240Z,19.92
2016-07-22T00:42:00.099Z,20.01
2016-07-22T00:43:00.185Z,19.93
2016-07-22T00:44:00.172Z,20
2016-07-22T00:45:00.244Z,19.98
2016-07-22T00:46:00.203Z,19.98
2016-07-22T00:47:00.256Z,19.93
2016-07-22T00:48:00.196Z,19.89
2016-07-22T00:49:00.115Z,19.98
2016-07-22T00:50:00.198Z,20.1
2016-07-22T00:51:00.113Z,20.16
2016-07-22T00:52:00.120Z,20.07
2016-07-22T00:53:00.218Z,20.1
2016-07-22T00:54:00.219Z,20.05
2016-07-22T00:55:35.060Z,20.07
2016-07-22T00:56:00.308Z,20.08
2016-07-22T00:57:00.232Z,20.1
2016-07-22T00:58:00.304Z,20.1
2016-07-22T00:59:00.367Z,20.12
2016-07-22T01:00:00.207Z,20.07
2016-07-22T01:01:00.242Z,20.07
2016-07-22T01:02:00.230Z,20.12
2016-07-22T01:03:00.178Z,20.12
2016-07-22T01:04:00.334Z,20.2
2016-07-22T01:05:00.324Z,20.16
2016-07-22T01:06:00.259Z,20.15
2016-07-22T01:07:00.237Z,20.18
2016-07-22T01:08:00.188Z,20.08
2016-07-22T01:09:00.280Z,20.11
2016-07-22T01:10:00.204Z,20.1
2016-07-22T01:11:00.332Z,20.15
2016-07-22T01:12:00.268Z,20.15
2016-07-22T01:13:00.262Z,20.12
2016-07-22T01:14:00.190Z,20.08
2016-07-22T01:15:00.276Z,20.1
2016-07-22T01:16:00.242Z,20.1
2016-07-22T01:17:00.275Z,20.08
2016-07-22T01:18:00.269Z,20.02
2016-07-22T01:19:00.272Z,20
2016-07-22T01:20:00.286Z,20.11
2016-07-22T01:21:00.282Z,20.08
2016-07-22T01:22:00.216Z,19.95
2016-07-22T01:23:00.371Z,20.02
2016-07-22T01:24:00.280Z,20.04
2016-07-22T01:25:00.212Z,20.08
2016-07-22T01:26:00.286Z,20.05
2016-07-22T01:27:00.295Z,20.11
2016-07-22T01:28:00.388Z,20.15
2016-07-22T01:29:00.227Z,20.16
2016-07-22T01:30:00.391Z,20.22
2016-07-22T01:31:00.425Z,20.18
2016-07-22T01:32:00.385Z,20.22
2016-07-22T01:33:00.248Z,20.25
2016-07-22T01:34:00.373Z,20.26
2016-07-22T01:35:00.355Z,20.19
2016-07-22T01:36:00.338Z,20.16
2016-07-22T01:37:00.349Z,20.29
2016-07-22T01:38:01.166Z,20.2
2016-07-22T01:39:01.282Z,20.12
2016-07-22T01:40:00.338Z,20.23
2016-07-22T01:41:00.383Z,20.22
2016-07-22T01:42:00.280Z,20.16
2016-07-22T01:43:00.435Z,20.15
2016-07-22T01:44:00.267Z,20.1
2016-07-22T01:45:00.282Z,20.1
2016-07-22T01:46:00.461Z,20.11
2016-07-22T01:47:00.367Z,20.02
2016-07-22T01:48:00.367Z,19.95
2016-07-22T01:49:00.466Z,20
2016-07-22T01:50:00.373Z,20.08
2016-07-22T01:51:00.391Z,20.08
2016-07-22T01:52:00.377Z,20.11
2016-07-22T01:53:00.464Z,20.08
2016-07-22T01:54:00.459Z,20.08
2016-07-22T01:55:00.331Z,20.04
2016-07-22T01:56:00.395Z,20.08
2016-07-22T01:57:00.403Z,20.08
2016-07-22T01:58:00.488Z,20.05
2016-07-22T01:59:00.526Z,20.15
2016-07-22T02:00:01.127Z,20.01
2016-07-22T02:01:00.418Z,20.12
2016-07-22T02:02:01.073Z,20.02
2016-07-22T02:03:00.504Z,19.98
2016-07-22T02:04:00.503Z,20.05
2016-07-22T02:05:00.430Z,19.98
2016-07-22T02:06:00.423Z,20
2016-07-22T02:07:00.423Z,19.92
2016-07-22T02:08:00.436Z,20
2016-07-22T02:09:00.444Z,19.92
2016-07-22T02:10:00.439Z,19.93
2016-07-22T02:11:00.519Z,19.97
2016-07-22T02:12:00.512Z,19.97
2016-07-22T02:13:00.534Z,19.89
2016-07-22T02:14:00.510Z,19.83
2016-07-22T02:15:00.449Z,19.9
2016-07-22T02:16:00.438Z,19.86
2016-07-22T02:17:00.450Z,19.9
2016-07-22T02:18:00.452Z,19.87
2016-07-22T02:19:00.522Z,19.82
2016-07-22T02:20:00.465Z,19.82
2016-07-22T02:21:00.393Z,19.79
2016-07-22T02:22:00.374Z,19.75
2016-07-22T02:23:00.455Z,19.72
2016-07-22T02:24:00.470Z,19.79
2016-07-22T02:25:00.471Z,19.74
2016-07-22T02:26:00.462Z,19.71
2016-07-22T02:27:00.474Z,19.75
2016-07-22T02:28:00.477Z,19.7
2016-07-22T02:29:00.490Z,19.7
2016-07-22T02:30:00.594Z,19.74
2016-07-22T02:31:00.487Z,19.71
2016-07-22T02:32:00.474Z,19.8
2016-07-22T02:33:00.494Z,19.75
2016-07-22T02:34:00.417Z,19.75
2016-07-22T02:35:00.509Z,19.78
2016-07-22T02:36:00.580Z,19.79
2016-07-22T02:37:00.453Z,19.72
2016-07-22T02:38:00.512Z,19.71
2016-07-22T02:39:00.439Z,19.78
2016-07-22T02:40:00.524Z,19.68
2016-07-22T02:41:00.523Z,19.7
2016-07-22T02:42:00.457Z,19.67
2016-07-22T02:43:00.519Z,19.6
2016-07-22T02:44:00.510Z,19.65
2016-07-22T02:45:00.642Z,19.71
2016-07-22T02:46:00.444Z,19.61
2016-07-22T02:47:00.458Z,19.64
2016-07-22T02:48:00.537Z,19.74
2016-07-22T02:49:00.542Z,19.7
2016-07-22T02:50:00.452Z,19.67
2016-07-22T02:51:00.540Z,19.7
2016-07-22T02:52:00.464Z,19.78
2016-07-22T02:53:00.545Z,19.72
2016-07-22T02:54:00.559Z,19.68
2016-07-22T02:55:00.472Z,19.7
2016-07-22T02:56:00.640Z,19.65
2016-07-22T02:57:00.556Z,19.68
2016-07-22T02:58:00.563Z,19.7
2016-07-22T02:59:00.632Z,19.65
2016-07-22T03:00:00.661Z,19.63
2016-07-22T03:01:00.570Z,19.7
2016-07-22T03:02:00.506Z,19.68
2016-07-22T03:03:00.581Z,19.64
2016-07-22T03:04:00.507Z,19.65
2016-07-22T03:05:00.509Z,19.57
2016-07-22T03:06:00.517Z,19.67
2016-07-22T03:07:00.603Z,19.67
2016-07-22T03:08:00.714Z,19.64
2016-07-22T03:09:00.525Z,19.68
2016-07-22T03:10:00.525Z,19.65
2016-07-22T03:11:00.624Z,19.6
2016-07-22T03:12:00.595Z,19.61
2016-07-22T03:13:00.597Z,19.68
2016-07-22T03:14:00.616Z,19.68
2016-07-22T03:15:00.530Z,19.52
2016-07-22T03:16:00.630Z,19.57
2016-07-22T03:17:00.696Z,19.56
2016-07-22T03:18:00.532Z,19.47
2016-07-22T03:19:00.631Z,19.5
2016-07-22T03:20:00.624Z,19.53
2016-07-22T03:21:00.631Z,19.49
2016-07-22T03:22:00.626Z,19.5
2016-07-22T03:23:00.735Z,19.5
2016-07-22T03:24:00.559Z,19.55
2016-07-22T03:25:00.737Z,19.57
2016-07-22T03:26:00.560Z,19.5
2016-07-22T03:27:00.681Z,19.61
2016-07-22T03:28:00.653Z,19.43
2016-07-22T03:29:00.660Z,19.55
2016-07-22T03:30:00.730Z,19.45
2016-07-22T03:31:00.773Z,19.4
2016-07-22T03:32:00.670Z,19.47
2016-07-22T03:33:00.598Z,19.42
2016-07-22T03:34:00.657Z,19.45
2016-07-22T03:35:00.640Z,19.46
2016-07-22T03:36:00.753Z,19.42
2016-07-22T03:37:00.765Z,19.49
2016-07-22T03:38:00.691Z,19.45
2016-07-22T03:39:00.610Z,19.5
2016-07-22T03:40:00.696Z,19.38
2016-07-22T03:41:00.611Z,19.43
2016-07-22T03:42:00.612Z,19.42
2016-07-22T03:43:00.694Z,19.38
2016-07-22T03:44:00.618Z,19.46
2016-07-22T03:45:00.689Z,19.5
2016-07-22T03:46:00.768Z,19.43
2016-07-22T03:51:19.256Z,19.37
2016-07-22T03:51:26.667Z,19.52
2016-07-22T03:52:26.176Z,19.53
2016-07-22T03:53:26.074Z,19.4
2016-07-22T03:54:26.181Z,19.46
2016-07-22T03:55:26.236Z,19.46
2016-07-22T03:56:26.259Z,19.43
2016-07-22T03:57:26.171Z,19.42
2016-07-22T03:58:26.197Z,19.5
2016-07-22T03:59:26.195Z,19.43
2016-07-22T04:00:26.183Z,19.38
2016-07-22T04:01:26.185Z,19.5
2016-07-22T04:02:26.115Z,19.43
2016-07-22T04:03:26.174Z,19.47
2016-07-22T04:04:26.206Z,19.43
2016-07-22T04:05:26.244Z,19.37
2016-07-22T04:06:26.251Z,19.49
2016-07-22T04:07:26.208Z,19.45
2016-07-22T04:08:26.141Z,19.47
2016-07-22T04:09:26.200Z,19.52
2016-07-22T04:10:26.213Z,19.56
2016-07-22T04:11:26.143Z,19.46
2016-07-22T04:12:26.210Z,19.63
2016-07-22T04:13:26.275Z,19.57
2016-07-22T04:14:26.148Z,19.5
2016-07-22T04:15:26.305Z,19.65
2016-07-22T04:16:26.318Z,19.61
2016-07-22T04:17:26.203Z,19.64
2016-07-22T04:18:26.309Z,19.57
2016-07-22T04:19:26.162Z,19.64
2016-07-22T04:20:26.159Z,19.71
2016-07-22T04:21:26.332Z,19.68
2016-07-22T04:22:26.241Z,19.71
2016-07-22T04:23:26.357Z,19.7
2016-07-22T04:24:26.264Z,19.72
2016-07-22T04:25:26.255Z,19.79
2016-07-22T04:26:26.336Z,19.79
2016-07-22T04:27:26.326Z,19.86
2016-07-22T04:28:26.220Z,19.71
2016-07-22T04:29:26.353Z,19.89
2016-07-22T04:30:26.224Z,19.89
2016-07-22T04:31:26.288Z,19.82
2016-07-22T04:32:26.939Z,19.79
2016-07-22T04:33:26.368Z,19.92
2016-07-22T04:34:26.295Z,19.95
2016-07-22T04:35:26.330Z,19.89
2016-07-22T04:36:26.225Z,19.9
2016-07-22T04:37:26.292Z,20.02
2016-07-22T04:38:27.098Z,20
2016-07-22T04:39:26.402Z,19.9
2016-07-22T04:40:26.304Z,19.97
2016-07-22T04:41:26.248Z,19.98
2016-07-22T04:42:26.368Z,20.02
2016-07-22T04:43:26.233Z,20.02
2016-07-22T04:44:26.228Z,20.07
2016-07-22T04:45:26.242Z,20.05
2016-07-22T04:46:26.344Z,20.05
2016-07-22T04:47:26.238Z,20.1
2016-07-22T04:48:26.410Z,20.1
2016-07-22T04:49:26.853Z,20.15
2016-07-22T04:50:26.414Z,20.12
2016-07-22T04:51:26.356Z,20.18
2016-07-22T04:52:26.316Z,20.19
2016-07-22T04:53:26.441Z,20.23
2016-07-22T04:54:26.285Z,20.26
2016-07-22T04:55:26.355Z,20.34
2016-07-22T04:56:26.420Z,20.4
2016-07-22T04:57:26.276Z,20.32
2016-07-22T04:58:26.342Z,20.41
2016-07-22T04:59:26.379Z,20.49
2016-07-22T05:00:26.375Z,20.38
2016-07-22T05:01:26.350Z,20.46
2016-07-22T05:02:26.297Z,20.53
2016-07-22T05:03:26.292Z,20.53
2016-07-22T05:04:26.282Z,20.49
2016-07-22T05:05:26.450Z,20.56
2016-07-22T05:06:26.296Z,20.53
2016-07-22T05:07:26.512Z,20.6
2016-07-22T05:08:26.389Z,20.67
2016-07-22T05:09:26.367Z,20.67
2016-07-22T05:10:26.463Z,20.72
2016-07-22T05:11:26.332Z,20.66
2016-07-22T05:12:26.398Z,20.83
2016-07-22T05:13:26.381Z,20.76
2016-07-22T05:14:26.471Z,20.9
2016-07-22T05:15:26.495Z,20.9
2016-07-22T05:16:26.322Z,20.94
2016-07-22T05:17:26.412Z,20.93
2016-07-22T05:18:26.333Z,20.79
2016-07-22T05:19:26.336Z,20.93
2016-07-22T05:20:26.410Z,20.91
2016-07-22T05:21:26.506Z,20.93
2016-07-22T05:22:26.413Z,20.78
2016-07-22T05:23:26.502Z,20.72
2016-07-22T05:24:26.423Z,20.72
2016-07-22T05:25:26.499Z,20.76
2016-07-22T05:26:26.429Z,20.74
2016-07-22T05:27:26.503Z,20.78
2016-07-22T05:28:26.350Z,20.68
2016-07-22T05:29:26.403Z,20.61
2016-07-22T05:30:26.441Z,20.67
2016-07-22T05:31:26.566Z,20.67
2016-07-22T05:32:26.433Z,20.71
2016-07-22T05:33:26.543Z,20.66
2016-07-22T05:34:26.380Z,20.67
2016-07-22T05:35:26.474Z,20.63
2016-07-22T05:36:26.448Z,20.63
2016-07-22T05:37:26.456Z,20.71
2016-07-22T05:38:26.576Z,20.74
2016-07-22T05:39:26.514Z,20.85
2016-07-22T05:40:26.463Z,20.81
2016-07-22T05:41:26.471Z,20.9
2016-07-22T05:42:26.500Z,20.79
2016-07-22T05:43:26.459Z,20.93
2016-07-22T05:44:26.481Z,20.93
2016-07-22T05:45:26.472Z,20.98
2016-07-22T05:46:26.577Z,20.9
2016-07-22T05:47:26.567Z,21.09
2016-07-22T05:48:26.491Z,21.03
2016-07-22T05:49:26.433Z,21.09
2016-07-22T05:50:26.526Z,21.09
2016-07-22T05:51:26.553Z,21.13
2016-07-22T05:52:26.502Z,21.11
2016-07-22T05:53:26.425Z,21.06
2016-07-22T05:54:26.586Z,21.16
2016-07-22T05:55:26.609Z,21.22
2016-07-22T05:56:26.447Z,21.23
2016-07-22T05:57:26.521Z,21.13
2016-07-22T05:58:26.470Z,21.23
2016-07-22T05:59:26.608Z,21.12
2016-07-22T06:00:26.469Z,21.19
2016-07-22T06:01:27.153Z,21.31
2016-07-22T06:02:26.613Z,21.34
2016-07-22T06:03:26.575Z,21.3
2016-07-22T06:04:26.453Z,21.36
2016-07-22T06:05:26.605Z,21.3
2016-07-22T06:06:26.549Z,21.33
2016-07-22T06:07:26.550Z,21.36
2016-07-22T06:08:26.612Z,21.3
2016-07-22T06:09:26.549Z,21.37
2016-07-22T06:10:26.480Z,21.33
2016-07-22T06:11:26.565Z,21.36
2016-07-22T06:12:26.631Z,21.3
2016-07-22T06:13:26.498Z,21.37
2016-07-22T06:14:26.652Z,21.36
2016-07-22T06:15:26.695Z,21.41
2016-07-22T06:16:26.501Z,21.48
2016-07-22T06:17:26.501Z,21.46
2016-07-22T06:18:26.692Z,21.46
2016-07-22T06:19:26.681Z,21.52
2016-07-22T06:20:26.602Z,21.58
2016-07-22T06:21:26.502Z,21.61
2016-07-22T06:22:26.687Z,21.68
2016-07-22T06:23:26.661Z,21.73
2016-07-22T06:24:26.587Z,21.68
2016-07-22T06:25:26.596Z,21.71
2016-07-22T06:26:26.625Z,21.77
2016-07-22T06:27:26.603Z,21.74
2016-07-22T06:28:26.688Z,21.82
2016-07-22T06:29:26.719Z,21.89
2016-07-22T06:30:26.623Z,21.89
2016-07-22T06:31:26.538Z,21.82
2016-07-22T06:32:26.536Z,21.85
2016-07-22T06:33:26.625Z,21.83
2016-07-22T06:34:26.559Z,21.85
2016-07-22T06:35:26.636Z,22
2016-07-22T06:36:26.632Z,21.89
2016-07-22T06:37:26.547Z,21.97
2016-07-22T06:38:26.565Z,21.97
2016-07-22T06:39:26.561Z,21.97
2016-07-22T06:40:26.716Z,22
2016-07-22T06:41:26.649Z,22
2016-07-22T06:42:26.640Z,22.23
2016-07-22T06:43:26.649Z,22.15
2016-07-22T06:44:26.572Z,22.18
2016-07-22T06:45:26.596Z,22.29
2016-07-22T06:46:26.651Z,22.31
2016-07-22T06:47:26.738Z,22.45
2016-07-22T06:48:26.643Z,22.46
2016-07-22T06:49:26.731Z,22.44
2016-07-22T06:50:26.666Z,22.44
2016-07-22T06:51:26.668Z,22.51
2016-07-22T06:52:26.667Z,22.52
2016-07-22T06:53:26.679Z,22.59
2016-07-22T06:54:26.667Z,22.49
2016-07-22T06:55:26.698Z,22.48
2016-07-22T06:56:26.611Z,22.46
2016-07-22T06:57:26.705Z,22.41
2016-07-22T06:58:26.619Z,22.33
2016-07-22T06:59:27.175Z,22.23
2016-07-22T07:00:26.946Z,22.22
2016-07-22T07:01:27.170Z,22.22
2016-07-22T07:02:27.050Z,22.18
2016-07-22T07:03:27.170Z,22.08
2016-07-22T07:04:26.971Z,22.08
2016-07-22T07:05:26.658Z,21.97
2016-07-22T07:06:26.648Z,22.05
2016-07-22T07:07:26.674Z,22.05
2016-07-22T07:08:26.728Z,22.05
2016-07-22T07:09:26.734Z,22.08
2016-07-22T07:10:26.848Z,22.11
2016-07-22T07:11:26.728Z,22.15
2016-07-22T07:12:26.657Z,22.11
2016-07-22T07:13:26.735Z,22.09
2016-07-22T07:14:26.793Z,22.11
2016-07-22T07:15:26.881Z,22.12
2016-07-22T07:16:26.735Z,22.08
2016-07-22T07:17:26.669Z,22.12
2016-07-22T07:18:26.780Z,22.14
2016-07-22T07:19:26.701Z,22.16
2016-07-22T07:20:26.668Z,22.27
2016-07-22T07:21:26.837Z,22.33
2016-07-22T07:22:26.764Z,22.38
2016-07-22T07:23:26.691Z,22.42
2016-07-22T07:24:26.773Z,22.49
2016-07-22T07:25:26.787Z,22.48
2016-07-22T07:26:26.761Z,22.54
2016-07-22T07:27:26.772Z,22.46
2016-07-22T07:28:26.791Z,22.54
2016-07-22T07:29:26.830Z,22.64
2016-07-22T07:30:26.936Z,22.7
2016-07-22T07:31:26.871Z,22.78
2016-07-22T07:32:26.776Z,22.85
2016-07-22T07:33:26.787Z,22.86
2016-07-22T07:34:26.905Z,22.85
2016-07-22T07:35:26.821Z,22.96
2016-07-22T07:36:26.878Z,23.22
2016-07-22T07:37:26.804Z,23.41
2016-07-22T07:38:26.884Z,23.47
2016-07-22T07:39:26.820Z,23.7
2016-07-22T07:40:26.898Z,23.81
2016-07-22T07:41:26.958Z,24.15
2016-07-22T07:42:26.834Z,24.14
2016-07-22T07:43:26.892Z,23.96
2016-07-22T07:44:26.960Z,24.02
2016-07-22T07:45:26.765Z,24.22
2016-07-22T07:46:26.852Z,24.32
2016-07-22T07:47:26.909Z,24.09
2016-07-22T07:48:26.828Z,24.08
2016-07-22T07:49:26.907Z,24.24
2016-07-22T07:50:26.763Z,24.17
2016-07-22T07:51:26.889Z,24.34
2016-07-22T07:52:27.075Z,23.96
2016-07-22T07:53:26.856Z,24.09
2016-07-22T07:54:26.837Z,24.3
2016-07-22T07:55:26.929Z,24.3
2016-07-22T07:56:26.855Z,24.33
2016-07-22T07:57:26.882Z,24.44
2016-07-22T07:58:26.898Z,24.3
2016-07-22T07:59:26.888Z,24.3
2016-07-22T08:00:26.877Z,24.46
2016-07-22T08:01:26.894Z,24.78
2016-07-22T08:02:27.578Z,24.63
2016-07-22T08:03:26.819Z,24.37
2016-07-22T08:04:26.815Z,24.26
2016-07-22T08:05:26.876Z,24.15
2016-07-22T08:06:26.830Z,24.15
2016-07-22T08:07:26.838Z,24.27
2016-07-22T08:08:26.807Z,24.39
2016-07-22T08:09:26.824Z,24.69
2016-07-22T08:10:26.910Z,25
2016-07-22T08:11:26.854Z,25.51
2016-07-22T08:12:26.917Z,25.88
2016-07-22T08:13:26.930Z,26.26
2016-07-22T08:14:26.981Z,26.34
2016-07-22T08:15:26.900Z,26.16
2016-07-22T08:16:26.943Z,26
2016-07-22T08:17:26.904Z,26.03
2016-07-22T08:18:26.848Z,26.24
2016-07-22T08:19:26.963Z,26.56
2016-07-22T08:20:26.872Z,26.76
2016-07-22T08:21:27.017Z,27.23
2016-07-22T08:22:26.858Z,27.11
2016-07-22T08:23:26.852Z,27.42
2016-07-22T08:24:26.949Z,27.71
2016-07-22T08:25:26.871Z,27.84
2016-07-22T08:26:27.039Z,27.53
2016-07-22T08:27:27.089Z,27.57
2016-07-22T08:28:27.123Z,27.53
2016-07-22T08:29:27.243Z,26.89
2016-07-22T08:30:27.300Z,26.67
2016-07-22T08:31:27.225Z,26.35
2016-07-22T08:32:27.432Z,25.82
2016-07-22T08:33:27.029Z,25.84
2016-07-22T08:34:27.005Z,25.89
2016-07-22T08:35:26.927Z,25.64
2016-07-22T08:36:27.066Z,25.93
2016-07-22T08:37:27.011Z,26.07
2016-07-22T08:38:27.061Z,26.23
2016-07-22T08:39:26.976Z,26.06
2016-07-22T08:40:26.911Z,26.44
2016-07-22T08:41:27.009Z,26.69
2016-07-22T08:42:27.094Z,27.04
2016-07-22T08:43:27.004Z,27.19
2016-07-22T08:44:27.218Z,27.12
2016-07-22T08:45:27.025Z,27.24
2016-07-22T08:46:27.059Z,26.91
2016-07-22T08:47:27.098Z,27.04
2016-07-22T08:48:26.953Z,27.23
2016-07-22T08:49:27.012Z,27.38
2016-07-22T08:50:27.222Z,27.28
2016-07-22T08:51:27.118Z,27.55
2016-07-22T08:52:27.144Z,27.36
2016-07-22T08:53:27.028Z,27.06
2016-07-22T08:54:27.135Z,26.71
2016-07-22T08:55:26.953Z,26.49
2016-07-22T08:56:27.079Z,25.82
2016-07-22T08:57:27.009Z,25.88
2016-07-22T08:58:27.120Z,25.78
2016-07-22T08:59:27.076Z,25.91
2016-07-22T09:00:28.182Z,25.51
2016-07-22T09:01:27.170Z,25.66
2016-07-22T09:02:27.105Z,25.79
2016-07-22T09:03:27.063Z,26.2
2016-07-22T09:04:27.146Z,26.31
2016-07-22T09:05:27.216Z,26.42
2016-07-22T09:06:27.077Z,26.72
2016-07-22T09:07:27.227Z,27.05
2016-07-22T09:08:27.130Z,27.46
2016-07-22T09:09:27.167Z,27.46
2016-07-22T09:10:27.001Z,27.52
2016-07-22T09:11:27.302Z,28.05
2016-07-22T09:12:27.101Z,28.23
2016-07-22T09:13:27.140Z,27.66
2016-07-22T09:14:27.146Z,27.38
2016-07-22T09:15:27.194Z,27.42
2016-07-22T09:16:27.204Z,27.26
2016-07-22T09:17:27.154Z,27.18
2016-07-22T09:18:27.168Z,27.43
2016-07-22T09:19:27.125Z,27.72
2016-07-22T09:20:27.129Z,28.39
2016-07-22T09:21:27.090Z,28.97
2016-07-22T09:22:27.190Z,29.67
2016-07-22T09:23:27.255Z,30.16
2016-07-22T09:24:27.141Z,30.7
2016-07-22T09:25:27.272Z,30.85
2016-07-22T09:26:27.164Z,29.94
2016-07-22T09:27:27.129Z,29.28
2016-07-22T09:28:27.142Z,28.38
2016-07-22T09:29:27.081Z,27.94
2016-07-22T09:30:27.170Z,27.68
2016-07-22T09:31:27.252Z,27.51
2016-07-22T09:32:27.167Z,27.72
2016-07-22T09:33:27.169Z,27.91
2016-07-22T09:34:27.209Z,28.18
2016-07-22T09:35:27.272Z,28.38
2016-07-22T09:36:27.191Z,28.33
2016-07-22T09:37:27.271Z,27.61
2016-07-22T09:38:27.205Z,27.42
2016-07-22T09:39:27.141Z,27.18
2016-07-22T09:40:27.221Z,27
2016-07-22T09:41:27.273Z,26.54
2016-07-22T09:42:27.306Z,26.35
2016-07-22T09:43:27.197Z,26.32
2016-07-22T09:44:27.243Z,25.96
2016-07-22T09:45:27.307Z,25.47
2016-07-22T09:46:28.628Z,25.23
2016-07-22T09:47:27.298Z,25.15
2016-07-22T09:48:27.207Z,25.17
2016-07-22T09:49:27.229Z,24.97
2016-07-22T09:50:27.293Z,24.89
2016-07-22T09:51:27.235Z,24.75
2016-07-22T09:52:27.235Z,24.69
2016-07-22T09:53:27.270Z,24.63
2016-07-22T09:54:27.311Z,24.63
2016-07-22T09:55:27.284Z,24.44
2016-07-22T09:56:27.187Z,24.21
2016-07-22T09:57:27.271Z,23.81
2016-07-22T09:58:27.186Z,23.67
2016-07-22T09:59:27.241Z,23.47
2016-07-22T10:00:27.334Z,23.21
2016-07-22T10:01:27.161Z,23.04
2016-07-22T10:02:27.314Z,22.79
2016-07-22T10:03:27.320Z,22.61
2016-07-22T10:04:27.198Z,22.27
2016-07-22T10:05:27.373Z,22.22
2016-07-22T10:06:27.258Z,22
2016-07-22T10:07:27.243Z,21.92
2016-07-22T10:08:27.205Z,21.93
2016-07-22T10:09:27.392Z,21.9
2016-07-22T10:10:27.267Z,21.97
2016-07-22T10:11:27.269Z,21.83
2016-07-22T10:12:27.311Z,21.74
2016-07-22T10:13:27.221Z,21.51
2016-07-22T10:14:27.206Z,21.34
2016-07-22T10:15:27.286Z,21.23
2016-07-22T10:16:27.309Z,21.21
2016-07-22T10:17:27.272Z,20.93
2016-07-22T10:18:27.361Z,20.85
2016-07-22T10:19:27.374Z,20.6
2016-07-22T10:20:27.246Z,20.51
2016-07-22T10:21:27.391Z,20.32
2016-07-22T10:22:27.421Z,20.18
2016-07-22T10:23:27.340Z,20.1
2016-07-22T10:24:27.474Z,20.05
2016-07-22T10:25:27.563Z,20.01
2016-07-22T10:26:27.424Z,19.95
2016-07-22T10:27:27.409Z,19.9
2016-07-22T10:28:27.318Z,19.79
2016-07-22T10:29:27.408Z,19.71
2016-07-22T10:30:28.214Z,19.78
2016-07-22T10:31:27.342Z,19.71
2016-07-22T10:32:27.248Z,19.68
2016-07-22T10:33:27.324Z,19.65
2016-07-22T10:34:27.445Z,19.74
2016-07-22T10:35:27.273Z,19.85
2016-07-22T10:36:27.347Z,19.79
2016-07-22T10:37:27.250Z,19.71
2016-07-22T10:38:27.381Z,19.83
2016-07-22T10:39:27.457Z,19.92
2016-07-22T10:40:27.496Z,20.15
2016-07-22T10:41:27.368Z,20.16
2016-07-22T10:42:27.356Z,20.12
2016-07-22T10:43:27.276Z,20.1
2016-07-22T10:44:27.448Z,20.12
2016-07-22T10:45:27.310Z,20.15
2016-07-22T10:46:27.378Z,20.07
2016-07-22T10:47:27.432Z,20.07
2016-07-22T10:48:27.443Z,20.15
2016-07-22T10:49:27.389Z,20.3
2016-07-22T10:50:27.456Z,20.56
2016-07-22T10:51:27.339Z,20.58
2016-07-22T10:52:27.429Z,20.63
2016-07-22T10:53:27.402Z,20.51
2016-07-22T10:54:27.301Z,20.51
2016-07-22T10:55:27.407Z,20.42
2016-07-22T10:56:27.439Z,20.41
2016-07-22T10:57:27.404Z,20.34
2016-07-22T10:58:27.350Z,20.26
2016-07-22T10:59:27.445Z,20.29
2016-07-22T11:00:27.549Z,20.46
2016-07-22T11:01:27.328Z,20.46
2016-07-22T11:02:27.583Z,20.38
2016-07-22T11:03:27.412Z,20.34
2016-07-22T11:04:27.371Z,20.41
2016-07-22T11:05:27.617Z,20.38
2016-07-22T11:06:27.563Z,20.6
2016-07-22T11:07:27.435Z,20.74
2016-07-22T11:08:27.530Z,20.94
2016-07-22T11:09:27.425Z,20.98
2016-07-22T11:10:27.634Z,20.96
2016-07-22T11:11:27.476Z,21.11
2016-07-22T11:12:28.374Z,21.27
2016-07-22T11:13:27.496Z,21.25
2016-07-22T11:14:27.521Z,21.38
2016-07-22T11:15:27.374Z,21.56
2016-07-22T11:16:27.537Z,21.94
2016-07-22T11:17:27.575Z,22.33
2016-07-22T11:18:27.496Z,22.78
2016-07-22T11:19:27.473Z,23.28
2016-07-22T11:20:27.569Z,23.82
2016-07-22T11:21:27.665Z,24.02
2016-07-22T11:22:27.557Z,24.11
2016-07-22T11:23:27.521Z,23.99
2016-07-22T11:24:27.582Z,23.75
2016-07-22T11:25:27.467Z,24.04
2016-07-22T11:26:28.910Z,24.67
2016-07-22T11:27:27.485Z,25.05
2016-07-22T11:28:27.410Z,25.23
2016-07-22T11:29:27.587Z,25.56
2016-07-22T11:30:27.522Z,25.91
2016-07-22T11:31:27.626Z,26.26
2016-07-22T11:32:27.506Z,26.52
2016-07-22T11:33:27.488Z,25.42
2016-07-22T11:34:27.498Z,25.42
2016-07-22T11:35:27.586Z,25.52
2016-07-22T11:36:27.430Z,25.74
2016-07-22T11:37:27.542Z,25.81
2016-07-22T11:38:27.443Z,26.03
2016-07-22T11:39:27.586Z,25.56
2016-07-22T11:40:27.509Z,25.88
2016-07-22T11:41:27.554Z,25.96
2016-07-22T11:42:27.473Z,26.56
2016-07-22T11:43:27.596Z,27.28
2016-07-22T11:44:27.582Z,27.37
2016-07-22T11:45:27.615Z,27.27
2016-07-22T11:46:27.909Z,27.16
2016-07-22T11:47:27.547Z,27.28
2016-07-22T11:48:27.549Z,27.09
2016-07-22T11:49:27.586Z,27.23
2016-07-22T11:50:27.507Z,27.13
2016-07-22T11:51:27.548Z,27.48
2016-07-22T11:52:27.878Z,27.55
2016-07-22T11:53:27.610Z,27.74
2016-07-22T11:54:27.621Z,27.62
2016-07-22T11:55:27.707Z,27.45
2016-07-22T11:56:31.656Z,27.27
2016-07-22T11:57:27.741Z,27.38
2016-07-22T11:58:27.582Z,27.38
2016-07-22T11:59:27.586Z,27.11
2016-07-22T12:00:29.679Z,26.86
2016-07-22T12:01:27.585Z,26.9
2016-07-22T12:02:27.530Z,27.01
2016-07-22T12:03:27.613Z,27.01
2016-07-22T12:04:27.604Z,27.04
2016-07-22T12:05:27.612Z,26.79
2016-07-22T12:06:27.591Z,26.57
2016-07-22T12:07:27.598Z,27.11
2016-07-22T12:08:27.598Z,27.74
2016-07-22T12:09:27.524Z,28.24
2016-07-22T12:10:27.587Z,28.51
2016-07-22T12:11:27.566Z,29.01
2016-07-22T12:12:27.555Z,29.03
2016-07-22T12:13:27.607Z,29.06
2016-07-22T12:14:27.861Z,29.05
2016-07-22T12:15:28.007Z,28.91
2016-07-22T12:16:27.902Z,29.02
2016-07-22T12:17:27.766Z,28.85
2016-07-22T12:18:28.565Z,29.29
2016-07-22T12:19:27.689Z,29.47
2016-07-22T12:20:27.702Z,29.58
2016-07-22T12:21:27.642Z,30.1
2016-07-22T12:22:27.672Z,30.44
2016-07-22T12:23:27.596Z,30.67
2016-07-22T12:36:28.572Z,31.08
2016-07-22T12:36:35.696Z,29.14
2016-07-22T12:37:35.480Z,29.23
2016-07-22T12:38:35.609Z,29.32
2016-07-22T12:39:35.653Z,29.51
2016-07-22T12:40:35.695Z,29.84
2016-07-22T12:41:35.614Z,30.32
2016-07-22T12:42:35.534Z,30.57
2016-07-22T12:43:35.575Z,30.45
2016-07-22T12:44:35.577Z,31.13
2016-07-22T12:45:35.702Z,30.45
2016-07-22T12:46:35.766Z,29.45
2016-07-22T12:47:35.616Z,29.36
2016-07-22T12:48:35.704Z,29.58
2016-07-22T12:49:35.639Z,29.95
2016-07-22T12:50:35.617Z,29.67
2016-07-22T12:51:35.652Z,29.51
2016-07-22T12:52:35.703Z,29.61
2016-07-22T12:53:35.587Z,29.47
2016-07-22T12:54:35.643Z,29.69
2016-07-22T12:55:35.703Z,29.97
2016-07-22T12:56:35.763Z,30.02
2016-07-22T12:57:35.671Z,29.97
2016-07-22T12:58:36.135Z,29.72
2016-07-22T12:59:35.635Z,29.97
2016-07-22T13:00:35.647Z,29.98
2016-07-22T13:01:35.759Z,30.31
2016-07-22T13:02:35.761Z,30.82
2016-07-22T13:03:35.727Z,31.01
2016-07-22T13:04:35.796Z,30.85
2016-07-22T13:05:35.737Z,30.04
2016-07-22T13:06:35.613Z,29.47
2016-07-22T13:07:35.737Z,29.32
2016-07-22T13:08:35.677Z,29.42
2016-07-22T13:09:35.753Z,29.32
2016-07-22T13:10:35.784Z,29.28